Time;durP1;ratioP1;P1;durP2;ratioP2;P2;SDS_P1;SDS_P2;PMS_P1;PMS_P2;Temp;Humidity;BMP_temperature;BMP_pressure;BME280_temperature;BME280_humidity;BME280_pressure;Samples;Min_cycle;Max_cycle;Signal;HPM_P1;HPM_P2
2022/04/06 00:00:18;;;;;;;19.23;4.75;;;9.90;99.90;;;;;;5053463;28;20055;-57
2022/04/06 00:02:44;;;;;;;23.20;5.45;;;10.00;99.90;;;;;;5069822;28;20455;-58
2022/04/06 00:05:10;;;;;;;21.65;5.13;;;10.00;99.90;;;;;;5054996;28;20025;-57
2022/04/06 00:07:40;;;;;;;20.10;5.38;;;10.00;99.90;;;;;;5053264;28;20096;-57
2022/04/06 00:10:07;;;;;;;27.40;6.07;;;10.00;99.90;;;;;;5054652;28;20083;-58
2022/04/06 00:12:34;;;;;;;21.67;4.78;;;10.00;99.90;;;;;;5054879;28;20029;-58
2022/04/06 00:15:00;;;;;;;26.63;4.93;;;10.00;99.90;;;;;;5053949;28;20078;-57
2022/04/06 00:17:26;;;;;;;18.08;4.22;;;10.00;99.90;;;;;;5053725;28;20025;-57
2022/04/06 00:19:52;;;;;;;17.45;4.25;;;10.00;99.90;;;;;;5055249;28;20033;-58
2022/04/06 00:22:17;;;;;;;17.30;3.55;;;10.00;99.90;;;;;;5072890;28;20500;-57
2022/04/06 00:24:43;;;;;;;20.25;4.43;;;10.10;99.90;;;;;;5058462;28;20110;-57
2022/04/06 00:27:09;;;;;;;19.42;4.00;;;10.00;99.90;;;;;;5055746;28;20112;-57
2022/04/06 00:29:34;;;;;;;18.83;4.20;;;10.00;99.90;;;;;;5053465;28;20028;-57
2022/04/06 00:32:00;;;;;;;19.83;3.83;;;10.00;99.90;;;;;;5053454;28;20112;-57
2022/04/06 00:37:10;;;;;;;16.35;3.42;;;10.00;99.90;;;;;;5053818;28;20036;-57
2022/04/06 00:39:36;;;;;;;18.30;3.90;;;10.00;99.90;;;;;;5052922;28;20028;-57
2022/04/06 00:42:01;;;;;;;18.92;4.45;;;10.00;99.90;;;;;;5053213;28;20017;-57
2022/04/06 00:44:28;;;;;;;24.30;4.82;;;9.90;99.90;;;;;;5068737;28;20088;-57
2022/04/06 00:46:54;;;;;;;20.25;3.70;;;9.90;99.90;;;;;;5052689;28;20044;-57
2022/04/06 00:49:19;;;;;;;12.07;3.67;;;9.90;99.90;;;;;;5052417;28;20417;-57
2022/04/06 00:51:48;;;;;;;17.08;3.92;;;9.90;99.90;;;;;;5052188;28;20048;-59
2022/04/06 00:54:15;;;;;;;17.20;4.75;;;9.90;99.90;;;;;;5052523;28;20087;-57
2022/04/06 00:56:42;;;;;;;23.58;4.45;;;9.80;99.90;;;;;;5052609;28;20025;-57
2022/04/06 00:59:08;;;;;;;18.88;4.60;;;9.80;99.90;;;;;;5052992;28;20091;-57
2022/04/06 01:01:34;;;;;;;22.45;4.68;;;9.80;99.90;;;;;;5067903;28;20616;-57
2022/04/06 01:04:00;;;;;;;21.73;4.22;;;9.80;99.90;;;;;;5051068;28;20048;-57
2022/04/06 01:06:26;;;;;;;21.60;4.30;;;9.90;99.90;;;;;;5052293;28;20390;-57
2022/04/06 01:08:52;;;;;;;19.77;3.90;;;9.80;99.90;;;;;;5051796;28;20067;-57
2022/04/06 01:11:19;;;;;;;19.10;4.60;;;9.90;99.90;;;;;;5052152;28;20148;-57
2022/04/06 01:13:45;;;;;;;17.35;3.70;;;9.90;99.90;;;;;;5050634;28;20063;-57
2022/04/06 01:16:11;;;;;;;18.30;4.53;;;9.90;99.90;;;;;;5051960;28;20071;-57
2022/04/06 01:18:36;;;;;;;18.27;4.28;;;9.90;99.90;;;;;;5052579;28;20378;-57
2022/04/06 01:21:03;;;;;;;18.70;4.28;;;9.90;99.90;;;;;;5052580;28;20071;-57
2022/04/06 01:23:30;;;;;;;16.88;3.90;;;9.80;99.90;;;;;;5052313;28;20054;-57
2022/04/06 01:25:55;;;;;;;23.73;4.72;;;9.80;99.90;;;;;;5052085;28;20017;-57
2022/04/06 01:28:21;;;;;;;19.25;3.85;;;9.80;99.90;;;;;;5052583;28;20063;-57
2022/04/06 01:30:47;;;;;;;23.90;4.20;;;9.80;99.90;;;;;;5053070;28;20086;-57
2022/04/06 01:33:13;;;;;;;15.98;3.40;;;9.90;99.90;;;;;;5053253;28;20395;-57
2022/04/06 01:35:41;;;;;;;14.98;4.13;;;9.80;99.90;;;;;;5052559;28;20043;-57
2022/04/06 01:38:07;;;;;;;22.65;4.63;;;9.80;99.90;;;;;;5052061;28;20047;-58
2022/04/06 01:40:33;;;;;;;21.77;4.38;;;9.80;99.90;;;;;;5051423;28;20529;-58
2022/04/06 01:42:59;;;;;;;21.20;4.97;;;9.80;99.90;;;;;;5052426;28;20025;-57
2022/04/06 01:45:26;;;;;;;25.23;5.13;;;9.70;99.90;;;;;;5050435;28;20032;-57
2022/04/06 01:47:51;;;;;;;25.83;5.47;;;9.70;99.90;;;;;;5051414;28;20397;-58
2022/04/06 01:53:03;;;;;;;18.10;5.13;;;9.70;99.90;;;;;;5052007;28;20044;-57
2022/04/06 01:55:29;;;;;;;23.17;5.07;;;9.70;99.90;;;;;;5051038;28;20025;-57
2022/04/06 01:57:56;;;;;;;21.08;6.13;;;9.60;99.90;;;;;;5052204;28;20068;-57
2022/04/06 02:00:21;;;;;;;32.22;6.70;;;9.60;99.90;;;;;;5052138;28;20080;-57
2022/04/06 02:02:50;;;;;;;27.02;6.10;;;9.60;99.90;;;;;;5051614;28;20397;-57
2022/04/06 02:05:19;;;;;;;26.88;7.35;;;9.60;99.90;;;;;;5051057;28;20030;-57
2022/04/06 02:07:50;;;;;;;25.38;6.00;;;9.60;99.90;;;;;;5051122;28;20025;-57
2022/04/06 02:10:17;;;;;;;28.77;6.15;;;9.60;99.90;;;;;;5051636;28;20566;-58
2022/04/06 02:12:44;;;;;;;23.13;5.88;;;9.60;99.90;;;;;;5051914;28;20039;-57
2022/04/06 02:15:12;;;;;;;29.17;6.45;;;9.60;99.90;;;;;;5051383;28;20482;-58
2022/04/06 02:17:37;;;;;;;29.60;7.68;;;9.60;99.90;;;;;;5051368;28;20163;-58
2022/04/06 02:20:04;;;;;;;25.10;7.00;;;9.60;99.90;;;;;;5051588;28;20503;-58
2022/04/06 02:22:30;;;;;;;30.52;7.00;;;9.60;99.90;;;;;;5066606;28;20390;-57
2022/04/06 02:24:55;;;;;;;23.58;7.15;;;9.60;99.90;;;;;;5050827;28;20017;-57
2022/04/06 02:27:21;;;;;;;29.27;7.72;;;9.60;99.90;;;;;;5051387;28;20025;-58
2022/04/06 02:29:47;;;;;;;22.27;7.05;;;9.60;99.90;;;;;;5051875;28;20029;-58
2022/04/06 02:32:13;;;;;;;28.35;7.13;;;9.50;99.90;;;;;;5050562;28;20025;-57
2022/04/06 02:34:39;;;;;;;27.63;6.72;;;9.50;99.90;;;;;;5050933;28;20032;-57
2022/04/06 02:37:05;;;;;;;22.27;5.93;;;9.50;99.90;;;;;;5050778;28;20040;-58
2022/04/06 02:39:31;;;;;;;25.60;6.70;;;9.50;99.90;;;;;;5050996;28;20394;-57
2022/04/06 02:41:57;;;;;;;24.67;6.70;;;9.50;99.90;;;;;;5051171;28;20032;-58
2022/04/06 02:44:22;;;;;;;26.90;7.20;;;9.50;99.90;;;;;;5051146;28;20087;-58
2022/04/06 02:46:48;;;;;;;29.00;6.25;;;9.50;99.90;;;;;;5051374;28;20013;-57
2022/04/06 02:49:15;;;;;;;22.00;6.03;;;9.40;99.90;;;;;;5051662;28;20457;-57
2022/04/06 02:51:41;;;;;;;19.33;5.43;;;9.40;99.90;;;;;;5051167;28;20036;-57
2022/04/06 02:54:06;;;;;;;22.95;5.82;;;9.40;99.90;;;;;;5050722;28;20104;-57
2022/04/06 02:56:33;;;;;;;24.45;6.00;;;9.40;99.90;;;;;;5050645;28;20382;-58
2022/04/06 02:58:58;;;;;;;25.95;6.38;;;9.40;99.90;;;;;;5050392;28;20482;-58
2022/04/06 03:01:24;;;;;;;18.40;5.05;;;9.40;99.90;;;;;;5050295;28;20155;-57
2022/04/06 03:03:50;;;;;;;22.63;5.68;;;9.30;99.90;;;;;;5050282;28;20107;-57
2022/04/06 03:06:16;;;;;;;22.02;5.80;;;9.40;99.90;;;;;;5050174;28;20048;-57
2022/04/06 03:08:43;;;;;;;24.92;5.75;;;9.40;99.90;;;;;;5050282;28;20465;-57
2022/04/06 03:11:09;;;;;;;16.13;4.47;;;9.30;99.90;;;;;;5050946;28;20025;-57
2022/04/06 03:13:34;;;;;;;20.88;4.80;;;9.30;99.90;;;;;;5052821;28;20549;-57
2022/04/06 03:16:00;;;;;;;19.27;4.80;;;9.30;99.90;;;;;;5054926;28;20056;-57
2022/04/06 03:18:26;;;;;;;20.85;5.15;;;9.30;99.90;;;;;;5055431;28;20031;-57
2022/04/06 03:20:51;;;;;;;19.88;4.90;;;9.40;99.90;;;;;;5054687;28;20069;-57
2022/04/06 03:23:17;;;;;;;25.05;4.95;;;9.40;99.90;;;;;;5054607;28;20025;-58
2022/04/06 03:25:44;;;;;;;18.08;4.82;;;9.30;99.90;;;;;;5054600;28;20100;-58
2022/04/06 03:28:09;;;;;;;20.15;4.85;;;9.40;99.90;;;;;;5055045;28;20067;-57
2022/04/06 03:30:35;;;;;;;23.95;5.03;;;9.40;99.90;;;;;;5054939;28;20048;-57
2022/04/06 03:33:01;;;;;;;23.25;4.65;;;9.40;99.90;;;;;;5054446;28;20437;-58
2022/04/06 03:35:27;;;;;;;22.00;5.57;;;9.40;99.90;;;;;;5054859;28;20021;-57
2022/04/06 03:37:53;;;;;;;22.75;5.47;;;9.40;99.90;;;;;;5054393;28;20025;-58
2022/04/06 03:40:19;;;;;;;16.70;4.18;;;9.30;99.90;;;;;;5056871;28;20086;-57
2022/04/06 03:42:45;;;;;;;20.95;4.32;;;9.40;99.90;;;;;;5058693;28;20024;-58
2022/04/06 03:45:11;;;;;;;16.95;4.57;;;9.50;99.90;;;;;;5055502;28;20021;-57
2022/04/06 03:47:38;;;;;;;18.50;4.45;;;9.50;99.90;;;;;;5069847;28;20480;-57
2022/04/06 03:50:07;;;;;;;24.65;5.38;;;9.50;99.90;;;;;;5054040;28;20049;-57
2022/04/06 03:52:33;;;;;;;20.60;4.82;;;9.50;99.90;;;;;;5054003;28;20068;-57
2022/04/06 03:54:59;;;;;;;17.42;4.60;;;9.50;99.90;;;;;;5053343;28;20075;-57
2022/04/06 03:57:25;;;;;;;24.20;5.15;;;9.50;99.90;;;;;;5053418;28;20037;-57
2022/04/06 03:59:51;;;;;;;19.05;4.00;;;9.50;99.90;;;;;;5055095;28;20430;-58
2022/04/06 04:02:17;;;;;;;20.98;4.28;;;9.40;99.90;;;;;;5054286;28;20067;-57
2022/04/06 04:04:43;;;;;;;20.85;4.40;;;9.40;99.90;;;;;;5053437;28;20433;-57
2022/04/06 04:07:09;;;;;;;19.70;4.82;;;9.40;99.90;;;;;;5053997;28;20052;-57
2022/04/06 04:09:38;;;;;;;17.00;4.32;;;9.40;99.90;;;;;;5054668;28;20130;-57
2022/04/06 04:12:04;;;;;;;16.42;4.00;;;9.40;99.90;;;;;;5053765;28;20033;-57
2022/04/06 04:14:34;;;;;;;21.67;4.07;;;9.40;99.90;;;;;;5052872;28;20036;-57
2022/04/06 04:17:00;;;;;;;21.25;3.67;;;9.40;99.90;;;;;;5053462;28;20033;-57
2022/04/06 04:19:25;;;;;;;16.15;3.45;;;9.40;99.90;;;;;;5053899;28;20020;-58
2022/04/06 04:21:51;;;;;;;17.25;3.38;;;9.40;99.90;;;;;;5053682;28;20479;-58
2022/04/06 04:24:17;;;;;;;14.02;3.50;;;9.40;99.90;;;;;;5053362;28;20036;-57
2022/04/06 04:26:42;;;;;;;17.38;3.85;;;9.40;99.90;;;;;;5053617;28;20378;-57
2022/04/06 04:29:08;;;;;;;13.55;3.67;;;9.40;99.90;;;;;;5054685;28;20029;-58
2022/04/06 04:31:34;;;;;;;11.38;3.67;;;9.40;99.90;;;;;;5054306;28;20060;-58
2022/04/06 04:34:01;;;;;;;14.32;3.22;;;9.40;99.90;;;;;;5053426;28;20029;-57
2022/04/06 04:36:27;;;;;;;17.77;4.13;;;9.40;99.90;;;;;;5053223;28;20108;-58
2022/04/06 04:38:53;;;;;;;8.63;2.67;;;9.30;99.90;;;;;;5053486;28;20064;-57
2022/04/06 04:41:18;;;;;;;16.67;3.88;;;9.40;99.90;;;;;;5053924;28;20025;-57
2022/04/06 04:43:44;;;;;;;15.63;3.70;;;9.40;99.90;;;;;;5053552;28;20067;-58
2022/04/06 04:46:10;;;;;;;16.08;2.75;;;9.40;99.90;;;;;;5052295;28;20025;-57
2022/04/06 04:48:35;;;;;;;15.90;3.15;;;9.40;99.90;;;;;;5052458;28;20052;-57
2022/04/06 04:51:01;;;;;;;14.70;3.28;;;9.40;99.90;;;;;;5053716;28;20048;-58
2022/04/06 04:53:27;;;;;;;16.58;3.33;;;9.30;99.90;;;;;;5053057;28;20036;-57
2022/04/06 04:55:56;;;;;;;18.27;3.88;;;9.30;99.90;;;;;;5053234;28;20102;-58
2022/04/06 04:58:21;;;;;;;16.17;3.63;;;9.20;99.90;;;;;;5052461;28;20378;-58
2022/04/06 05:00:47;;;;;;;12.63;3.30;;;9.20;99.90;;;;;;5052006;28;20024;-57
2022/04/06 05:03:13;;;;;;;23.27;4.55;;;9.10;99.90;;;;;;5053074;28;20040;-57
2022/04/06 05:05:44;;;;;;;14.32;3.15;;;9.10;99.90;;;;;;5051870;28;20406;-57
2022/04/06 05:08:10;;;;;;;17.48;3.53;;;9.20;99.90;;;;;;5052943;28;20083;-57
2022/04/06 05:10:36;;;;;;;21.40;4.40;;;9.10;99.90;;;;;;5052771;28;20421;-58
2022/04/06 05:13:03;;;;;;;15.90;3.92;;;9.10;99.90;;;;;;5052312;28;20083;-57
2022/04/06 05:15:29;;;;;;;12.10;4.40;;;9.10;99.90;;;;;;5051877;28;20090;-57
2022/04/06 05:17:55;;;;;;;15.85;5.15;;;9.10;99.90;;;;;;5052022;28;20486;-57
2022/04/06 05:20:20;;;;;;;14.13;4.78;;;9.10;99.90;;;;;;5052017;28;20020;-57
2022/04/06 05:22:46;;;;;;;11.93;3.83;;;9.10;99.90;;;;;;5052360;28;20067;-58
2022/04/06 05:25:12;;;;;;;13.60;4.22;;;9.00;99.90;;;;;;5052260;28;20025;-57
2022/04/06 05:27:45;;;;;;;15.55;4.25;;;9.00;99.90;;;;;;5051540;28;20091;-58
2022/04/06 05:30:14;;;;;;;13.88;3.97;;;9.00;99.90;;;;;;5051924;28;20029;-57
2022/04/06 05:32:40;;;;;;;22.00;4.47;;;9.10;99.90;;;;;;5052329;28;20500;-57
2022/04/06 05:35:08;;;;;;;16.58;3.78;;;9.00;99.90;;;;;;5051760;28;20434;-58
2022/04/06 05:37:34;;;;;;;15.80;3.90;;;9.00;99.90;;;;;;5050766;28;20056;-57
2022/04/06 05:40:00;;;;;;;13.77;3.95;;;9.00;99.90;;;;;;5051622;28;20435;-57
2022/04/06 05:42:26;;;;;;;14.15;3.65;;;9.00;99.90;;;;;;5051744;28;20021;-57
2022/04/06 05:44:52;;;;;;;13.75;4.00;;;9.00;99.90;;;;;;5051483;28;20301;-57
2022/04/06 05:47:17;;;;;;;18.33;4.25;;;9.00;99.90;;;;;;5051417;28;20478;-57
2022/04/06 05:49:43;;;;;;;12.98;3.03;;;9.00;99.90;;;;;;5052002;28;20101;-58
2022/04/06 05:52:09;;;;;;;13.23;2.83;;;9.10;99.90;;;;;;5052084;28;20024;-59
2022/04/06 05:54:36;;;;;;;10.18;2.38;;;9.10;99.90;;;;;;5052534;28;20035;-57
2022/04/06 05:57:01;;;;;;;10.82;2.78;;;9.10;99.90;;;;;;5052158;28;20134;-58
2022/04/06 05:59:27;;;;;;;14.60;2.97;;;9.20;99.90;;;;;;5052373;28;20049;-58
2022/04/06 06:01:53;;;;;;;10.80;2.40;;;9.20;99.90;;;;;;5052148;28;20064;-57
2022/04/06 06:04:18;;;;;;;9.35;2.47;;;9.30;99.90;;;;;;5052541;28;20028;-57
2022/04/06 06:06:44;;;;;;;12.18;2.45;;;9.30;99.90;;;;;;5051206;28;20025;-58
2022/04/06 06:09:10;;;;;;;14.00;2.78;;;9.40;99.90;;;;;;5051929;28;20033;-57
2022/04/06 06:11:36;;;;;;;12.43;2.70;;;9.50;99.90;;;;;;5051416;28;20033;-58
2022/04/06 06:14:02;;;;;;;10.13;2.20;;;9.40;99.90;;;;;;5050823;28;20032;-57
2022/04/06 06:16:28;;;;;;;13.77;2.90;;;9.40;99.90;;;;;;5051226;28;20075;-58
2022/04/06 06:18:55;;;;;;;14.40;3.03;;;9.40;99.90;;;;;;5051092;28;20498;-58
2022/04/06 06:21:21;;;;;;;10.40;2.95;;;9.50;99.90;;;;;;5051346;28;20040;-57
2022/04/06 06:23:47;;;;;;;13.98;3.10;;;9.40;99.90;;;;;;5051506;28;20035;-57
2022/04/06 06:26:13;;;;;;;13.50;2.80;;;9.40;99.90;;;;;;5051489;28;20104;-57
2022/04/06 06:28:39;;;;;;;10.82;3.08;;;9.40;99.90;;;;;;5051670;28;20287;-57
2022/04/06 06:31:05;;;;;;;8.02;2.35;;;9.30;99.90;;;;;;5050402;28;20041;-58
2022/04/06 06:33:30;;;;;;;10.10;2.13;;;9.30;99.90;;;;;;5048626;28;20427;-58
2022/04/06 06:35:56;;;;;;;11.02;2.67;;;9.30;99.90;;;;;;5049325;28;20501;-57
2022/04/06 06:38:22;;;;;;;15.65;3.00;;;9.40;99.90;;;;;;5050180;28;20029;-57
2022/04/06 06:40:48;;;;;;;14.88;3.05;;;9.40;99.90;;;;;;5050052;28;20033;-57
2022/04/06 06:43:17;;;;;;;5.78;2.03;;;9.40;99.90;;;;;;5052886;28;20029;-57
2022/04/06 06:45:42;;;;;;;7.65;2.03;;;9.40;99.90;;;;;;5055344;28;20016;-57
2022/04/06 06:48:08;;;;;;;10.90;2.95;;;9.40;99.90;;;;;;5053732;28;20055;-57
2022/04/06 06:50:34;;;;;;;8.65;1.80;;;9.40;99.90;;;;;;5055158;28;20106;-57
2022/04/06 06:52:59;;;;;;;10.02;3.05;;;9.40;99.90;;;;;;5058078;28;20025;-57
2022/04/06 06:55:25;;;;;;;12.75;3.00;;;9.40;99.90;;;;;;5057567;28;20037;-57
2022/04/06 06:57:51;;;;;;;12.25;2.75;;;9.30;99.90;;;;;;5055010;28;20029;-57
2022/04/06 07:00:17;;;;;;;9.20;3.10;;;9.30;99.90;;;;;;5054986;28;20049;-57
2022/04/06 07:02:43;;;;;;;6.90;2.35;;;9.30;99.90;;;;;;5055563;28;20028;-57
2022/04/06 07:05:09;;;;;;;11.23;2.58;;;9.30;99.90;;;;;;5055061;28;20017;-57
2022/04/06 07:07:49;;;;;;;8.73;2.38;;;9.40;99.90;;;;;;5052381;28;20044;-57
2022/04/06 07:10:15;;;;;;;10.68;2.70;;;9.40;99.90;;;;;;5065064;28;20047;-57
2022/04/06 07:12:41;;;;;;;8.68;2.63;;;9.40;99.90;;;;;;5055568;28;20032;-57
2022/04/06 07:15:07;;;;;;;8.07;1.85;;;9.40;99.90;;;;;;5058083;28;20068;-57
2022/04/06 07:17:33;;;;;;;8.90;2.30;;;9.50;99.90;;;;;;5043949;28;20071;-57
2022/04/06 07:19:59;;;;;;;10.70;2.40;;;9.60;99.90;;;;;;5052900;28;20036;-57
2022/04/06 07:22:24;;;;;;;8.77;2.55;;;9.60;99.90;;;;;;5065189;28;20059;-57
2022/04/06 07:24:50;;;;;;;10.85;2.95;;;9.60;99.90;;;;;;5059954;28;20024;-57
2022/04/06 07:27:16;;;;;;;8.07;2.22;;;9.60;99.90;;;;;;5046427;28;20033;-57
2022/04/06 07:29:43;;;;;;;9.73;2.50;;;9.70;99.90;;;;;;5048158;28;20029;-57
2022/04/06 07:32:09;;;;;;;8.82;2.15;;;9.70;99.90;;;;;;5059421;28;20040;-57
2022/04/06 07:34:35;;;;;;;4.85;2.10;;;9.70;99.90;;;;;;5073951;28;20074;-57
2022/04/06 07:37:01;;;;;;;9.38;2.10;;;9.70;99.90;;;;;;5054782;28;20021;-57
2022/04/06 07:39:27;;;;;;;10.60;2.40;;;9.80;99.90;;;;;;5054196;28;20025;-57
2022/04/06 07:41:56;;;;;;;9.55;2.28;;;9.90;99.90;;;;;;5053873;28;20099;-57
2022/04/06 07:44:22;;;;;;;11.52;2.35;;;9.90;99.90;;;;;;5069829;28;20028;-57
2022/04/06 07:46:48;;;;;;;9.50;1.80;;;9.90;99.90;;;;;;5054538;28;20044;-57
2022/04/06 07:49:14;;;;;;;10.40;2.10;;;10.00;99.90;;;;;;5054196;28;20052;-57
2022/04/06 07:51:39;;;;;;;9.90;2.42;;;10.00;99.90;;;;;;5053822;28;20067;-57
2022/04/06 07:54:05;;;;;;;6.95;1.98;;;10.10;99.90;;;;;;5053332;28;20037;-56
2022/04/06 07:56:31;;;;;;;4.97;1.83;;;10.00;99.90;;;;;;5054207;28;20420;-57
2022/04/06 07:58:56;;;;;;;8.23;1.90;;;9.90;99.90;;;;;;5052918;28;20482;-56
2022/04/06 08:01:22;;;;;;;15.85;2.00;;;9.90;99.90;;;;;;5053394;28;20325;-56
2022/04/06 08:03:48;;;;;;;8.68;1.90;;;9.90;99.90;;;;;;5051926;28;20025;-57
2022/04/06 08:06:13;;;;;;;13.38;1.95;;;9.80;99.90;;;;;;5054385;28;20021;-57
2022/04/06 08:08:39;;;;;;;8.88;2.15;;;9.90;99.90;;;;;;5053420;28;20025;-56
2022/04/06 08:11:05;;;;;;;8.27;2.33;;;9.90;99.90;;;;;;5052851;28;20048;-56
2022/04/06 08:13:32;;;;;;;8.55;2.35;;;9.90;99.90;;;;;;5068062;28;20037;-57
2022/04/06 08:15:58;;;;;;;9.07;2.15;;;10.00;99.90;;;;;;5053758;28;20124;-57
2022/04/06 08:18:24;;;;;;;10.10;2.03;;;10.00;99.90;;;;;;5048847;28;20036;-56
2022/04/06 08:20:50;;;;;;;5.63;1.70;;;10.00;99.90;;;;;;5037672;28;20031;-56
2022/04/06 08:23:17;;;;;;;7.72;1.85;;;10.10;99.90;;;;;;5051356;28;20037;-56
2022/04/06 08:25:43;;;;;;;6.95;2.00;;;10.10;99.90;;;;;;5065250;28;20416;-56
2022/04/06 08:28:10;;;;;;;9.18;2.00;;;10.00;99.90;;;;;;5057978;28;20044;-57
2022/04/06 08:30:40;;;;;;;9.18;2.30;;;10.00;99.90;;;;;;5053377;28;20032;-57
2022/04/06 08:33:06;;;;;;;8.52;1.90;;;10.10;99.90;;;;;;5053215;28;20525;-57
2022/04/06 08:35:32;;;;;;;6.57;1.80;;;10.20;99.90;;;;;;5057162;28;20051;-57
2022/04/06 08:37:58;;;;;;;3.47;1.70;;;10.20;99.90;;;;;;5059845;28;20021;-56
2022/04/06 08:40:25;;;;;;;8.20;1.90;;;10.30;99.90;;;;;;5062558;28;20045;-57
2022/04/06 08:42:51;;;;;;;7.38;2.08;;;10.30;99.90;;;;;;5052783;28;20474;-56
2022/04/06 08:45:17;;;;;;;7.60;2.20;;;10.30;99.90;;;;;;5052893;28;20108;-56
2022/04/06 08:47:46;;;;;;;10.13;1.90;;;10.40;99.90;;;;;;5053388;28;20060;-56
2022/04/06 08:50:12;;;;;;;7.63;1.65;;;10.50;99.90;;;;;;5050701;28;20521;-57
2022/04/06 08:52:38;;;;;;;8.50;1.90;;;10.60;99.90;;;;;;5067392;28;20033;-57
2022/04/06 08:55:04;;;;;;;8.32;1.85;;;10.50;99.90;;;;;;5059213;28;20029;-56
2022/04/06 08:57:33;;;;;;;5.22;2.00;;;10.60;99.90;;;;;;5053836;28;20096;-57
2022/04/06 08:59:58;;;;;;;7.43;2.03;;;10.70;99.90;;;;;;5053080;28;20390;-57
2022/04/06 09:02:24;;;;;;;6.75;2.05;;;10.70;99.90;;;;;;5053765;28;20025;-56
2022/04/06 09:04:54;;;;;;;3.90;1.70;;;10.70;99.90;;;;;;5051817;28;20478;-56
2022/04/06 09:07:22;;;;;;;9.85;1.80;;;10.70;99.90;;;;;;5052297;28;20029;-56
2022/04/06 09:09:55;;;;;;;6.55;1.85;;;10.60;99.90;;;;;;5050117;28;20033;-56
2022/04/06 09:12:23;;;;;;;12.15;1.85;;;10.70;99.90;;;;;;5052786;28;20029;-56
2022/04/06 09:15:02;;;;;;;3.55;1.58;;;10.80;99.90;;;;;;5051900;28;20383;-56
2022/04/06 09:17:28;;;;;;;9.63;1.88;;;10.80;99.90;;;;;;5051918;28;20135;-57
2022/04/06 09:19:53;;;;;;;4.93;1.88;;;10.90;99.90;;;;;;5055756;28;20112;-56
2022/04/06 09:22:20;;;;;;;7.28;2.38;;;10.90;99.90;;;;;;5052501;28;20036;-57
2022/04/06 09:24:56;;;;;;;6.20;1.75;;;11.10;99.90;;;;;;5052357;28;20055;-57
2022/04/06 09:27:28;;;;;;;4.35;2.10;;;11.00;99.90;;;;;;5052438;28;20025;-57
2022/04/06 09:29:53;;;;;;;6.27;2.30;;;11.00;99.90;;;;;;5050571;28;20029;-56
2022/04/06 09:32:19;;;;;;;6.88;2.13;;;11.00;99.90;;;;;;5054012;28;20445;-57
2022/04/06 09:34:46;;;;;;;6.10;2.10;;;11.00;99.90;;;;;;5051326;28;20060;-57
2022/04/06 09:37:41;;;;;;;6.95;1.80;;;10.90;99.90;;;;;;5053293;28;20468;-56
2022/04/06 09:40:08;;;;;;;6.75;1.90;;;10.90;99.90;;;;;;5044432;28;20036;-56
2022/04/06 09:42:34;;;;;;;4.88;1.83;;;10.90;99.90;;;;;;5067348;28;20031;-57
2022/04/06 09:47:52;;;;;;;11.93;3.50;;;10.90;99.90;;;;;;5058059;28;20043;-58
2022/04/06 09:50:29;;;;;;;5.43;2.42;;;11.00;99.90;;;;;;5051944;28;20053;-58
2022/04/06 09:52:57;;;;;;;8.20;2.40;;;11.10;99.90;;;;;;5055630;28;20043;-57
2022/04/06 09:55:24;;;;;;;5.75;2.58;;;11.10;99.90;;;;;;5051703;28;20352;-56
2022/04/06 09:57:58;;;;;;;6.80;3.22;;;11.10;99.90;;;;;;5053442;28;20021;-57
2022/04/06 10:00:28;;;;;;;6.35;2.67;;;11.00;99.90;;;;;;5055487;28;20020;-57
2022/04/06 10:03:03;;;;;;;7.00;3.00;;;10.80;99.90;;;;;;5059598;28;20017;-57
2022/04/06 10:05:31;;;;;;;9.20;2.85;;;10.70;99.90;;;;;;5031282;28;20040;-57
2022/04/06 10:08:00;;;;;;;6.68;3.08;;;10.60;99.90;;;;;;5037123;28;20059;-57
2022/04/06 10:10:26;;;;;;;7.93;3.28;;;10.60;99.90;;;;;;5049019;28;20064;-58
2022/04/06 10:12:53;;;;;;;8.85;3.40;;;10.70;99.90;;;;;;5051486;28;20068;-57
2022/04/06 10:15:20;;;;;;;6.72;3.17;;;10.80;99.90;;;;;;5050972;28;20021;-57
2022/04/06 10:17:45;;;;;;;6.20;2.97;;;10.80;99.90;;;;;;5051319;28;20040;-58
2022/04/06 10:20:15;;;;;;;13.88;3.28;;;10.70;99.90;;;;;;5050703;28;20029;-57
2022/04/06 10:22:56;;;;;;;8.10;3.20;;;10.60;99.90;;;;;;5051486;28;20079;-56
2022/04/06 10:25:42;;;;;;;7.78;3.38;;;10.60;99.90;;;;;;5047642;28;20020;-56
2022/04/06 10:28:11;;;;;;;10.18;4.32;;;10.70;99.90;;;;;;5051717;28;20029;-57
2022/04/06 10:30:38;;;;;;;8.90;3.45;;;10.60;99.90;;;;;;5051091;28;20471;-57
2022/04/06 10:33:19;;;;;;;5.97;3.35;;;10.60;99.90;;;;;;5050613;28;20021;-56
2022/04/06 10:35:45;;;;;;;10.23;3.97;;;10.60;99.90;;;;;;5044478;28;20043;-57
2022/04/06 10:38:17;;;;;;;8.27;3.25;;;10.60;99.90;;;;;;5051416;28;20021;-58
2022/04/06 10:40:46;;;;;;;;;;;10.50;99.90;;;;;;5051325;28;20460;-57
2022/04/06 10:43:40;;;;;;;6.68;3.45;;;10.40;99.90;;;;;;5051040;28;19982;-58
2022/04/06 10:46:14;;;;;;;8.73;4.13;;;10.40;99.90;;;;;;5043761;28;20537;-57
2022/04/06 10:48:59;;;;;;;7.68;3.72;;;10.40;99.90;;;;;;5051783;28;20044;-56
2022/04/06 10:51:38;;;;;;;10.30;3.63;;;10.40;99.90;;;;;;5052467;28;20041;-57
2022/04/06 10:54:13;;;;;;;7.32;3.88;;;10.50;99.90;;;;;;5051357;28;20052;-57
2022/04/06 10:57:01;;;;;;;7.93;3.97;;;10.60;99.90;;;;;;5051705;28;20033;-57
2022/04/06 10:59:30;;;;;;;7.32;2.88;;;10.70;99.90;;;;;;5050634;28;20053;-57
2022/04/06 11:02:23;;;;;;;8.88;3.63;;;10.70;99.90;;;;;;5051081;28;20559;-57
2022/04/06 11:04:50;;;;;;;7.45;3.45;;;10.70;99.90;;;;;;5050767;28;20086;-57
2022/04/06 11:10:28;;;;;;;8.00;2.80;;;10.80;99.90;;;;;;5051133;28;20520;-56
2022/04/06 11:13:06;;;;;;;6.45;2.80;;;10.90;99.90;;;;;;5052579;28;20029;-56
2022/04/06 11:15:40;;;;;;;8.00;2.90;;;11.00;99.90;;;;;;5052173;28;20608;-56
2022/04/06 11:18:47;;;;;;;4.60;2.50;;;10.90;99.90;;;;;;5051633;28;20732;-57
2022/04/06 11:21:14;;;;;;;6.60;2.80;;;10.90;99.90;;;;;;5051116;28;20044;-56
2022/04/06 11:23:41;;;;;;;8.43;2.60;;;11.00;99.90;;;;;;5051577;28;20021;-57
2022/04/06 11:26:06;;;;;;;6.03;2.60;;;10.90;99.90;;;;;;5050784;28;20094;-57
2022/04/06 11:28:32;;;;;;;6.47;2.95;;;10.80;99.90;;;;;;5050074;28;20060;-57
2022/04/06 11:31:02;;;;;;;7.90;3.20;;;10.80;99.90;;;;;;5049977;28;20021;-57
2022/04/06 11:33:42;;;;;;;5.75;2.97;;;10.80;99.90;;;;;;5050574;28;20470;-57
2022/04/06 11:36:15;;;;;;;9.95;3.30;;;10.90;99.90;;;;;;5059770;28;20032;-57
2022/04/06 11:38:41;;;;;;;6.85;3.22;;;10.80;99.90;;;;;;5052285;28;20166;-57
2022/04/06 11:41:07;;;;;;;4.93;3.00;;;10.90;99.90;;;;;;5052499;28;20037;-57
2022/04/06 11:43:39;;;;;;;7.57;3.42;;;10.90;99.90;;;;;;5053754;28;20024;-57
2022/04/06 11:46:04;;;;;;;7.03;2.55;;;11.00;99.90;;;;;;5054424;28;20091;-56
2022/04/06 11:48:43;;;;;;;7.75;2.85;;;11.00;99.90;;;;;;5057834;28;20421;-56
2022/04/06 11:51:09;;;;;;;11.63;3.38;;;10.90;99.90;;;;;;5061980;28;20432;-56
2022/04/06 11:53:36;;;;;;;6.50;3.28;;;10.90;99.90;;;;;;5063146;28;20044;-56
2022/04/06 11:56:03;;;;;;;8.95;3.40;;;10.80;99.90;;;;;;5057299;28;20053;-56
2022/04/06 11:58:33;;;;;;;6.80;3.10;;;10.80;99.90;;;;;;5053682;28;20021;-56
2022/04/06 12:00:59;;;;;;;6.57;2.72;;;10.80;99.90;;;;;;5054070;28;20017;-57
2022/04/06 12:03:32;;;;;;;6.68;2.88;;;10.90;99.90;;;;;;5055407;28;20023;-57
2022/04/06 12:05:58;;;;;;;10.32;3.30;;;11.00;99.90;;;;;;5054742;28;20421;-56
2022/04/06 12:08:24;;;;;;;6.82;3.08;;;11.00;99.90;;;;;;5058535;28;20108;-56
2022/04/06 12:10:57;;;;;;;5.38;3.10;;;11.10;99.90;;;;;;5058157;28;20048;-57
2022/04/06 12:13:44;;;;;;;4.65;2.67;;;11.00;99.90;;;;;;5055749;28;20123;-57
2022/04/06 12:16:10;;;;;;;3.08;2.65;;;11.10;99.90;;;;;;5053241;28;20044;-57
2022/04/06 12:18:40;;;;;;;5.72;2.83;;;11.00;99.90;;;;;;5054297;28;20074;-57
2022/04/06 12:21:26;;;;;;;5.30;2.80;;;11.10;99.90;;;;;;5053106;28;20029;-56
2022/04/06 12:23:53;;;;;;;6.45;2.97;;;11.20;99.90;;;;;;5054539;28;20427;-56
2022/04/06 12:26:23;;;;;;;10.05;3.00;;;11.10;99.90;;;;;;5057691;28;20029;-57
2022/04/06 12:28:56;;;;;;;4.85;3.25;;;11.10;99.90;;;;;;5057783;28;20440;-57
2022/04/06 12:31:34;;;;;;;5.32;2.97;;;11.00;99.90;;;;;;5051501;28;20029;-57
2022/04/06 12:34:01;;;;;;;7.97;3.13;;;11.00;99.90;;;;;;5053953;28;20052;-57
2022/04/06 12:36:30;;;;;;;10.85;3.60;;;11.00;99.90;;;;;;5053263;28;20390;-57
2022/04/06 12:39:13;;;;;;;4.55;2.17;;;11.10;99.90;;;;;;5053058;28;20036;-57
2022/04/06 12:42:05;;;;;;;5.38;2.17;;;11.20;99.90;;;;;;5055665;28;20025;-57
2022/04/06 12:44:32;;;;;;;7.35;2.40;;;11.20;99.90;;;;;;5070178;28;20025;-57
2022/04/06 12:46:59;;;;;;;4.43;2.42;;;11.20;99.90;;;;;;5050435;28;20111;-56
2022/04/06 12:49:32;;;;;;;5.22;2.80;;;11.30;99.90;;;;;;5063469;28;20064;-57
2022/04/06 12:52:16;;;;;;;5.07;2.92;;;11.30;99.90;;;;;;5051097;28;20033;-57
2022/04/06 12:54:46;;;;;;;4.57;2.80;;;11.30;99.90;;;;;;5053542;28;20488;-57
2022/04/06 12:57:17;;;;;;;5.82;2.88;;;11.20;99.90;;;;;;5061668;28;20476;-56
2022/04/06 12:59:45;;;;;;;3.75;2.83;;;11.20;99.90;;;;;;5068999;28;20025;-57
2022/04/06 13:02:29;;;;;;;5.07;2.75;;;11.20;99.90;;;;;;5054723;28;20025;-57